sensor_id;sensor_type;location;lat;lon;timestamp;temperature;humidity
4090;DHT22;2059;48.538;12.146;2023-08-31T00:00:09;17.20;99.90
4090;DHT22;2059;48.538;12.146;2023-08-31T00:05:12;17.20;99.90
4090;DHT22;2059;48.538;12.146;2023-08-31T00:10:15;17.20;99.90
4090;DHT22;2059;48.538;12.146;2023-08-31T00:15:17;17.10;99.90
4090;DHT22;2059;48.538;12.146;2023-08-31T00:20:19;17.10;99.90
4090;DHT22;2059;48.538;12.146;2023-08-31T00:25:23;17.10;99.90
4090;DHT22;2059;48.538;12.146;2023-08-31T00:30:25;17.10;99.90
4090;DHT22;2059;48.538;12.146;2023-08-31T00:35:29;17.00;99.90
4090;DHT22;2059;48.538;12.146;2023-08-31T00:40:32;16.90;99.90
4090;DHT22;2059;48.538;12.146;2023-08-31T00:45:39;16.90;99.90
4090;DHT22;2059;48.538;12.146;2023-08-31T00:50:41;16.80;99.90
4090;DHT22;2059;48.538;12.146;2023-08-31T00:55:44;16.80;99.90
4090;DHT22;2059;48.538;12.146;2023-08-31T01:00:57;16.80;99.90
4090;DHT22;2059;48.538;12.146;2023-08-31T01:06:05;16.70;99.90
4090;DHT22;2059;48.538;12.146;2023-08-31T01:11:19;16.70;99.90
4090;DHT22;2059;48.538;12.146;2023-08-31T01:16:24;16.60;99.90
4090;DHT22;2059;48.538;12.146;2023-08-31T01:21:32;16.60;99.90
4090;DHT22;2059;48.538;12.146;2023-08-31T01:26:38;16.60;99.90
4090;DHT22;2059;48.538;12.146;2023-08-31T01:31:42;16.60;99.90
4090;DHT22;2059;48.538;12.146;2023-08-31T01:36:47;16.50;99.90
4090;DHT22;2059;48.538;12.146;2023-08-31T01:41:56;16.50;99.90
4090;DHT22;2059;48.538;12.146;2023-08-31T01:47:05;16.50;99.90
4090;DHT22;2059;48.538;12.146;2023-08-31T01:52:07;16.50;99.90
4090;DHT22;2059;48.538;12.146;2023-08-31T01:57:10;16.50;99.90
4090;DHT22;2059;48.538;12.146;2023-08-31T02:02:12;16.50;99.90
4090;DHT22;2059;48.538;12.146;2023-08-31T02:07:14;16.60;99.90
4090;DHT22;2059;48.538;12.146;2023-08-31T02:12:18;16.60;99.90
4090;DHT22;2059;48.538;12.146;2023-08-31T02:17:19;16.60;99.90
4090;DHT22;2059;48.538;12.146;2023-08-31T02:22:21;16.60;99.90
4090;DHT22;2059;48.538;12.146;2023-08-31T02:27:24;16.60;99.90
4090;DHT22;2059;48.538;12.146;2023-08-31T02:32:26;16.70;99.90
4090;DHT22;2059;48.538;12.146;2023-08-31T02:37:28;16.80;99.90
4090;DHT22;2059;48.538;12.146;2023-08-31T02:42:31;16.70;99.90
4090;DHT22;2059;48.538;12.146;2023-08-31T02:47:32;16.70;99.90
4090;DHT22;2059;48.538;12.146;2023-08-31T02:52:34;16.60;99.90
4090;DHT22;2059;48.538;12.146;2023-08-31T02:57:38;16.60;99.90
4090;DHT22;2059;48.538;12.146;2023-08-31T03:02:40;16.50;99.90
4090;DHT22;2059;48.538;12.146;2023-08-31T03:07:42;16.60;99.90
4090;DHT22;2059;48.538;12.146;2023-08-31T03:12:45;16.40;99.90
4090;DHT22;2059;48.538;12.146;2023-08-31T03:17:47;16.40;99.90
4090;DHT22;2059;48.538;12.146;2023-08-31T03:22:49;16.40;99.90
4090;DHT22;2059;48.538;12.146;2023-08-31T03:27:52;16.50;99.90
4090;DHT22;2059;48.538;12.146;2023-08-31T03:32:54;16.50;99.90
4090;DHT22;2059;48.538;12.146;2023-08-31T03:37:56;16.50;99.90
4090;DHT22;2059;48.538;12.146;2023-08-31T03:42:59;16.40;99.90
4090;DHT22;2059;48.538;12.146;2023-08-31T03:48:01;16.40;99.90
4090;DHT22;2059;48.538;12.146;2023-08-31T03:53:03;16.50;99.90
4090;DHT22;2059;48.538;12.146;2023-08-31T03:58:06;16.40;99.90
4090;DHT22;2059;48.538;12.146;2023-08-31T04:03:08;16.40;99.90
4090;DHT22;2059;48.538;12.146;2023-08-31T04:08:12;16.40;99.90
4090;DHT22;2059;48.538;12.146;2023-08-31T04:13:15;16.40;99.90
4090;DHT22;2059;48.538;12.146;2023-08-31T04:18:16;16.40;99.90
4090;DHT22;2059;48.538;12.146;2023-08-31T04:23:19;16.40;99.90
4090;DHT22;2059;48.538;12.146;2023-08-31T04:28:22;16.30;99.90
4090;DHT22;2059;48.538;12.146;2023-08-31T04:33:23;16.30;99.90
4090;DHT22;2059;48.538;12.146;2023-08-31T04:38:25;16.30;99.90
4090;DHT22;2059;48.538;12.146;2023-08-31T04:43:29;16.30;99.90
4090;DHT22;2059;48.538;12.146;2023-08-31T04:48:30;16.30;99.90
4090;DHT22;2059;48.538;12.146;2023-08-31T04:53:32;16.30;99.90
4090;DHT22;2059;48.538;12.146;2023-08-31T04:58:35;16.30;99.90
4090;DHT22;2059;48.538;12.146;2023-08-31T05:03:37;16.20;99.90
4090;DHT22;2059;48.538;12.146;2023-08-31T05:08:39;16.20;99.90
4090;DHT22;2059;48.538;12.146;2023-08-31T05:13:42;16.10;99.90
4090;DHT22;2059;48.538;12.146;2023-08-31T05:18:43;16.20;99.90
4090;DHT22;2059;48.538;12.146;2023-08-31T05:23:45;16.10;99.90
4090;DHT22;2059;48.538;12.146;2023-08-31T05:28:48;16.20;99.90
4090;DHT22;2059;48.538;12.146;2023-08-31T05:33:50;16.30;99.90
4090;DHT22;2059;48.538;12.146;2023-08-31T05:38:52;16.40;99.90
4090;DHT22;2059;48.538;12.146;2023-08-31T05:43:56;16.50;99.90
4090;DHT22;2059;48.538;12.146;2023-08-31T05:48:57;16.50;99.90
4090;DHT22;2059;48.538;12.146;2023-08-31T05:53:59;16.50;99.90
4090;DHT22;2059;48.538;12.146;2023-08-31T05:59:02;16.60;99.90
4090;DHT22;2059;48.538;12.146;2023-08-31T06:04:04;16.70;99.90
4090;DHT22;2059;48.538;12.146;2023-08-31T06:09:06;16.70;99.90
4090;DHT22;2059;48.538;12.146;2023-08-31T06:14:09;16.80;99.90
4090;DHT22;2059;48.538;12.146;2023-08-31T06:19:11;16.80;99.90
4090;DHT22;2059;48.538;12.146;2023-08-31T06:24:15;16.80;99.90
4090;DHT22;2059;48.538;12.146;2023-08-31T06:29:18;17.00;99.90
4090;DHT22;2059;48.538;12.146;2023-08-31T06:34:20;17.10;99.90
4090;DHT22;2059;48.538;12.146;2023-08-31T06:39:22;17.10;99.90
4090;DHT22;2059;48.538;12.146;2023-08-31T06:44:25;17.00;99.90
4090;DHT22;2059;48.538;12.146;2023-08-31T06:49:27;16.90;99.90
4090;DHT22;2059;48.538;12.146;2023-08-31T06:54:30;17.00;99.90
4090;DHT22;2059;48.538;12.146;2023-08-31T06:59:33;17.20;99.90
4090;DHT22;2059;48.538;12.146;2023-08-31T07:04:35;17.30;99.90
4090;DHT22;2059;48.538;12.146;2023-08-31T07:09:37;17.30;99.90
4090;DHT22;2059;48.538;12.146;2023-08-31T07:14:40;17.40;99.90
4090;DHT22;2059;48.538;12.146;2023-08-31T07:19:41;17.50;99.90
4090;DHT22;2059;48.538;12.146;2023-08-31T07:24:43;17.70;99.90
4090;DHT22;2059;48.538;12.146;2023-08-31T07:29:46;17.80;99.90
4090;DHT22;2059;48.538;12.146;2023-08-31T07:34:48;18.00;99.90
4090;DHT22;2059;48.538;12.146;2023-08-31T07:39:50;18.10;99.90
4090;DHT22;2059;48.538;12.146;2023-08-31T07:44:53;18.50;99.90
4090;DHT22;2059;48.538;12.146;2023-08-31T07:49:55;18.60;99.90
4090;DHT22;2059;48.538;12.146;2023-08-31T07:54:57;18.70;99.90
4090;DHT22;2059;48.538;12.146;2023-08-31T08:00:00;18.80;99.90
4090;DHT22;2059;48.538;12.146;2023-08-31T08:05:02;18.70;99.90
4090;DHT22;2059;48.538;12.146;2023-08-31T08:10:05;18.40;99.90
4090;DHT22;2059;48.538;12.146;2023-08-31T08:15:09;18.20;99.90
4090;DHT22;2059;48.538;12.146;2023-08-31T08:20:11;18.30;99.90
4090;DHT22;2059;48.538;12.146;2023-08-31T08:25:13;18.40;99.90
4090;DHT22;2059;48.538;12.146;2023-08-31T08:30:16;18.90;99.90
4090;DHT22;2059;48.538;12.146;2023-08-31T08:35:19;19.50;99.90
4090;DHT22;2059;48.538;12.146;2023-08-31T08:40:21;19.80;99.90
4090;DHT22;2059;48.538;12.146;2023-08-31T08:45:24;20.20;99.90
4090;DHT22;2059;48.538;12.146;2023-08-31T08:50:27;20.30;99.90
4090;DHT22;2059;48.538;12.146;2023-08-31T08:55:29;19.90;99.90
4090;DHT22;2059;48.538;12.146;2023-08-31T09:00:32;19.50;99.90
4090;DHT22;2059;48.538;12.146;2023-08-31T09:05:34;19.30;99.90
4090;DHT22;2059;48.538;12.146;2023-08-31T09:10:38;19.20;99.90
4090;DHT22;2059;48.538;12.146;2023-08-31T09:15:43;19.10;99.90
4090;DHT22;2059;48.538;12.146;2023-08-31T09:20:46;18.90;99.90
4090;DHT22;2059;48.538;12.146;2023-08-31T09:25:49;19.00;99.90
4090;DHT22;2059;48.538;12.146;2023-08-31T09:31:04;18.90;99.90
4090;DHT22;2059;48.538;12.146;2023-08-31T09:36:07;18.90;99.90
4090;DHT22;2059;48.538;12.146;2023-08-31T09:41:09;18.70;99.90
4090;DHT22;2059;48.538;12.146;2023-08-31T09:46:12;18.50;99.90
4090;DHT22;2059;48.538;12.146;2023-08-31T09:51:15;18.50;99.90
4090;DHT22;2059;48.538;12.146;2023-08-31T09:56:21;18.60;99.90
4090;DHT22;2059;48.538;12.146;2023-08-31T10:01:26;18.90;99.90
4090;DHT22;2059;48.538;12.146;2023-08-31T10:06:29;19.40;99.90
4090;DHT22;2059;48.538;12.146;2023-08-31T10:11:31;19.80;99.90
4090;DHT22;2059;48.538;12.146;2023-08-31T10:16:35;20.40;98.80
4090;DHT22;2059;48.538;12.146;2023-08-31T10:21:39;20.90;97.60
4090;DHT22;2059;48.538;12.146;2023-08-31T10:26:41;21.30;96.90
4090;DHT22;2059;48.538;12.146;2023-08-31T10:31:47;21.80;96.40
4090;DHT22;2059;48.538;12.146;2023-08-31T10:36:51;22.30;95.60
4090;DHT22;2059;48.538;12.146;2023-08-31T10:41:54;21.90;94.70
4090;DHT22;2059;48.538;12.146;2023-08-31T10:46:59;21.90;95.50
4090;DHT22;2059;48.538;12.146;2023-08-31T10:52:16;21.30;93.90
4090;DHT22;2059;48.538;12.146;2023-08-31T10:57:29;20.60;94.70
4090;DHT22;2059;48.538;12.146;2023-08-31T11:02:35;20.40;95.70
4090;DHT22;2059;48.538;12.146;2023-08-31T11:07:38;20.40;96.20
4090;DHT22;2059;48.538;12.146;2023-08-31T11:12:42;20.40;96.00
4090;DHT22;2059;48.538;12.146;2023-08-31T11:17:45;20.70;95.30
4090;DHT22;2059;48.538;12.146;2023-08-31T11:22:49;21.20;94.90
4090;DHT22;2059;48.538;12.146;2023-08-31T11:27:55;21.70;93.70
4090;DHT22;2059;48.538;12.146;2023-08-31T11:33:02;22.30;94.00
4090;DHT22;2059;48.538;12.146;2023-08-31T11:38:04;22.30;93.60
4090;DHT22;2059;48.538;12.146;2023-08-31T11:43:07;22.30;91.10
4090;DHT22;2059;48.538;12.146;2023-08-31T11:48:11;21.80;91.80
4090;DHT22;2059;48.538;12.146;2023-08-31T11:53:13;22.00;92.30
4090;DHT22;2059;48.538;12.146;2023-08-31T11:58:14;22.50;92.70
4090;DHT22;2059;48.538;12.146;2023-08-31T12:03:18;22.80;91.10
4090;DHT22;2059;48.538;12.146;2023-08-31T12:08:24;22.90;90.70
4090;DHT22;2059;48.538;12.146;2023-08-31T12:13:26;22.80;90.50
4090;DHT22;2059;48.538;12.146;2023-08-31T12:18:31;22.20;90.60
4090;DHT22;2059;48.538;12.146;2023-08-31T12:23:33;21.90;91.80
4090;DHT22;2059;48.538;12.146;2023-08-31T12:28:35;21.60;91.70
4090;DHT22;2059;48.538;12.146;2023-08-31T12:33:38;21.50;92.70
4090;DHT22;2059;48.538;12.146;2023-08-31T12:38:40;21.50;93.50
4090;DHT22;2059;48.538;12.146;2023-08-31T12:43:42;21.90;92.60
4090;DHT22;2059;48.538;12.146;2023-08-31T12:48:45;21.90;92.00
4090;DHT22;2059;48.538;12.146;2023-08-31T12:53:48;22.10;91.20
4090;DHT22;2059;48.538;12.146;2023-08-31T12:58:51;21.90;90.80
4090;DHT22;2059;48.538;12.146;2023-08-31T13:03:54;21.70;91.80
4090;DHT22;2059;48.538;12.146;2023-08-31T13:08:56;21.40;91.00
4090;DHT22;2059;48.538;12.146;2023-08-31T13:13:58;21.00;91.50
4090;DHT22;2059;48.538;12.146;2023-08-31T13:19:01;21.00;91.80
4090;DHT22;2059;48.538;12.146;2023-08-31T13:24:03;20.90;92.50
4090;DHT22;2059;48.538;12.146;2023-08-31T13:29:05;20.80;91.80
4090;DHT22;2059;48.538;12.146;2023-08-31T13:34:08;20.80;91.50
4090;DHT22;2059;48.538;12.146;2023-08-31T13:39:10;20.50;91.60
4090;DHT22;2059;48.538;12.146;2023-08-31T13:44:12;20.40;91.60
4090;DHT22;2059;48.538;12.146;2023-08-31T13:49:15;20.60;92.20
4090;DHT22;2059;48.538;12.146;2023-08-31T13:54:17;20.60;92.40
4090;DHT22;2059;48.538;12.146;2023-08-31T13:59:19;20.70;92.20
4090;DHT22;2059;48.538;12.146;2023-08-31T14:04:22;20.90;92.10
4090;DHT22;2059;48.538;12.146;2023-08-31T14:09:24;20.90;92.00
4090;DHT22;2059;48.538;12.146;2023-08-31T14:14:27;21.00;92.00
4090;DHT22;2059;48.538;12.146;2023-08-31T14:19:31;21.20;91.50
4090;DHT22;2059;48.538;12.146;2023-08-31T14:24:33;21.30;91.10
4090;DHT22;2059;48.538;12.146;2023-08-31T14:29:36;21.30;91.50
4090;DHT22;2059;48.538;12.146;2023-08-31T14:34:39;21.30;90.20
4090;DHT22;2059;48.538;12.146;2023-08-31T14:39:41;21.30;90.50
4090;DHT22;2059;48.538;12.146;2023-08-31T14:44:43;21.40;91.20
4090;DHT22;2059;48.538;12.146;2023-08-31T14:49:46;21.40;91.20
4090;DHT22;2059;48.538;12.146;2023-08-31T14:54:48;21.50;90.20
4090;DHT22;2059;48.538;12.146;2023-08-31T14:59:50;21.60;91.40
4090;DHT22;2059;48.538;12.146;2023-08-31T15:04:55;21.70;90.90
4090;DHT22;2059;48.538;12.146;2023-08-31T15:09:58;21.80;90.80
4090;DHT22;2059;48.538;12.146;2023-08-31T15:15:00;21.90;90.80
4090;DHT22;2059;48.538;12.146;2023-08-31T15:20:05;22.00;91.30
4090;DHT22;2059;48.538;12.146;2023-08-31T15:25:11;21.90;90.70
4090;DHT22;2059;48.538;12.146;2023-08-31T15:30:13;22.00;90.50
4090;DHT22;2059;48.538;12.146;2023-08-31T15:35:25;22.00;90.90
4090;DHT22;2059;48.538;12.146;2023-08-31T15:40:30;22.10;91.10
4090;DHT22;2059;48.538;12.146;2023-08-31T15:45:32;21.90;90.60
4090;DHT22;2059;48.538;12.146;2023-08-31T15:50:37;21.70;90.80
4090;DHT22;2059;48.538;12.146;2023-08-31T15:55:39;21.40;90.60
4090;DHT22;2059;48.538;12.146;2023-08-31T16:00:42;21.40;91.20
4090;DHT22;2059;48.538;12.146;2023-08-31T16:05:48;21.30;91.00
4090;DHT22;2059;48.538;12.146;2023-08-31T16:10:50;21.40;91.40
4090;DHT22;2059;48.538;12.146;2023-08-31T16:15:53;21.50;91.20
4090;DHT22;2059;48.538;12.146;2023-08-31T16:20:58;21.30;90.80
4090;DHT22;2059;48.538;12.146;2023-08-31T16:26:00;21.10;91.20
4090;DHT22;2059;48.538;12.146;2023-08-31T16:31:03;20.90;92.00
4090;DHT22;2059;48.538;12.146;2023-08-31T16:36:06;20.70;92.60
4090;DHT22;2059;48.538;12.146;2023-08-31T16:41:08;20.60;92.90
4090;DHT22;2059;48.538;12.146;2023-08-31T16:46:10;20.70;92.80
4090;DHT22;2059;48.538;12.146;2023-08-31T16:51:13;20.70;93.10
4090;DHT22;2059;48.538;12.146;2023-08-31T16:56:14;20.60;93.00
4090;DHT22;2059;48.538;12.146;2023-08-31T17:01:16;20.50;93.20
4090;DHT22;2059;48.538;12.146;2023-08-31T17:06:20;20.60;92.80
4090;DHT22;2059;48.538;12.146;2023-08-31T17:11:21;20.40;93.30
4090;DHT22;2059;48.538;12.146;2023-08-31T17:16:23;20.30;93.30
4090;DHT22;2059;48.538;12.146;2023-08-31T17:21:27;20.20;93.70
4090;DHT22;2059;48.538;12.146;2023-08-31T17:26:28;20.10;93.90
4090;DHT22;2059;48.538;12.146;2023-08-31T17:31:30;20.00;94.10
4090;DHT22;2059;48.538;12.146;2023-08-31T17:36:33;19.80;94.30
4090;DHT22;2059;48.538;12.146;2023-08-31T17:41:37;19.60;94.60
4090;DHT22;2059;48.538;12.146;2023-08-31T17:46:39;19.50;94.90
4090;DHT22;2059;48.538;12.146;2023-08-31T17:51:43;19.40;95.30
4090;DHT22;2059;48.538;12.146;2023-08-31T17:56:46;19.20;95.30
4090;DHT22;2059;48.538;12.146;2023-08-31T18:01:48;19.10;95.30
4090;DHT22;2059;48.538;12.146;2023-08-31T18:06:51;18.90;95.50
4090;DHT22;2059;48.538;12.146;2023-08-31T18:11:53;18.90;95.60
4090;DHT22;2059;48.538;12.146;2023-08-31T18:16:55;18.80;95.80
4090;DHT22;2059;48.538;12.146;2023-08-31T18:21:58;18.80;96.00
4090;DHT22;2059;48.538;12.146;2023-08-31T18:27:00;18.70;96.40
4090;DHT22;2059;48.538;12.146;2023-08-31T18:32:04;18.60;96.30
4090;DHT22;2059;48.538;12.146;2023-08-31T18:37:07;18.60;96.00
4090;DHT22;2059;48.538;12.146;2023-08-31T18:42:09;18.50;96.20
4090;DHT22;2059;48.538;12.146;2023-08-31T18:47:11;18.40;96.20
4090;DHT22;2059;48.538;12.146;2023-08-31T18:52:14;18.40;96.10
4090;DHT22;2059;48.538;12.146;2023-08-31T18:57:16;18.40;95.70
4090;DHT22;2059;48.538;12.146;2023-08-31T19:02:17;18.50;95.70
4090;DHT22;2059;48.538;12.146;2023-08-31T19:07:22;18.40;95.60
4090;DHT22;2059;48.538;12.146;2023-08-31T19:12:24;18.30;95.60
4090;DHT22;2059;48.538;12.146;2023-08-31T19:17:26;18.30;95.90
4090;DHT22;2059;48.538;12.146;2023-08-31T19:22:29;18.30;95.70
4090;DHT22;2059;48.538;12.146;2023-08-31T19:27:31;18.40;96.00
4090;DHT22;2059;48.538;12.146;2023-08-31T19:32:33;18.30;95.90
4090;DHT22;2059;48.538;12.146;2023-08-31T19:37:37;18.30;95.60
4090;DHT22;2059;48.538;12.146;2023-08-31T19:42:39;18.30;96.40
4090;DHT22;2059;48.538;12.146;2023-08-31T19:47:41;18.30;96.30
4090;DHT22;2059;48.538;12.146;2023-08-31T19:52:44;18.30;96.50
4090;DHT22;2059;48.538;12.146;2023-08-31T19:57:46;18.30;96.60
4090;DHT22;2059;48.538;12.146;2023-08-31T20:02:48;18.30;96.90
4090;DHT22;2059;48.538;12.146;2023-08-31T20:07:52;18.40;97.10
4090;DHT22;2059;48.538;12.146;2023-08-31T20:12:54;18.30;97.30
4090;DHT22;2059;48.538;12.146;2023-08-31T20:17:56;18.20;97.50
4090;DHT22;2059;48.538;12.146;2023-08-31T20:22:59;18.20;97.70
4090;DHT22;2059;48.538;12.146;2023-08-31T20:28:01;18.20;97.80
4090;DHT22;2059;48.538;12.146;2023-08-31T20:33:03;18.20;98.00
4090;DHT22;2059;48.538;12.146;2023-08-31T20:38:08;18.10;98.40
4090;DHT22;2059;48.538;12.146;2023-08-31T20:43:09;18.10;98.20
4090;DHT22;2059;48.538;12.146;2023-08-31T20:48:11;18.10;98.40
4090;DHT22;2059;48.538;12.146;2023-08-31T20:53:15;18.00;98.50
4090;DHT22;2059;48.538;12.146;2023-08-31T20:58:17;18.10;98.70
4090;DHT22;2059;48.538;12.146;2023-08-31T21:03:19;18.00;98.70
4090;DHT22;2059;48.538;12.146;2023-08-31T21:08:22;18.00;98.80
4090;DHT22;2059;48.538;12.146;2023-08-31T21:13:27;17.90;98.80
4090;DHT22;2059;48.538;12.146;2023-08-31T21:18:29;17.90;98.80
4090;DHT22;2059;48.538;12.146;2023-08-31T21:23:32;17.80;99.00
4090;DHT22;2059;48.538;12.146;2023-08-31T21:28:34;17.80;99.20
4090;DHT22;2059;48.538;12.146;2023-08-31T21:33:36;17.80;99.30
4090;DHT22;2059;48.538;12.146;2023-08-31T21:38:39;17.80;99.40
4090;DHT22;2059;48.538;12.146;2023-08-31T21:43:41;17.80;99.50
4090;DHT22;2059;48.538;12.146;2023-08-31T21:48:43;17.90;99.70
4090;DHT22;2059;48.538;12.146;2023-08-31T21:53:47;17.80;99.80
4090;DHT22;2059;48.538;12.146;2023-08-31T21:58:49;17.80;99.90
4090;DHT22;2059;48.538;12.146;2023-08-31T22:03:50;17.80;99.90
4090;DHT22;2059;48.538;12.146;2023-08-31T22:08:54;17.80;99.90
4090;DHT22;2059;48.538;12.146;2023-08-31T22:13:57;17.80;99.90
4090;DHT22;2059;48.538;12.146;2023-08-31T22:18:59;17.80;99.90
4090;DHT22;2059;48.538;12.146;2023-08-31T22:24:03;17.80;99.90
4090;DHT22;2059;48.538;12.146;2023-08-31T22:29:05;17.80;99.90
4090;DHT22;2059;48.538;12.146;2023-08-31T22:34:07;17.80;99.90
4090;DHT22;2059;48.538;12.146;2023-08-31T22:39:10;17.80;99.90
4090;DHT22;2059;48.538;12.146;2023-08-31T22:44:13;17.80;99.90
4090;DHT22;2059;48.538;12.146;2023-08-31T22:49:16;17.80;99.90
4090;DHT22;2059;48.538;12.146;2023-08-31T22:54:19;17.80;99.90
4090;DHT22;2059;48.538;12.146;2023-08-31T22:59:21;17.80;99.90
4090;DHT22;2059;48.538;12.146;2023-08-31T23:04:22;17.80;99.90
4090;DHT22;2059;48.538;12.146;2023-08-31T23:09:26;17.90;99.90
4090;DHT22;2059;48.538;12.146;2023-08-31T23:14:27;17.80;99.90
4090;DHT22;2059;48.538;12.146;2023-08-31T23:19:31;17.80;99.90
4090;DHT22;2059;48.538;12.146;2023-08-31T23:24:34;17.80;99.90
4090;DHT22;2059;48.538;12.146;2023-08-31T23:29:37;17.70;99.90
4090;DHT22;2059;48.538;12.146;2023-08-31T23:34:39;17.70;99.90
4090;DHT22;2059;48.538;12.146;2023-08-31T23:39:42;17.70;99.90
4090;DHT22;2059;48.538;12.146;2023-08-31T23:44:45;17.70;99.90
4090;DHT22;2059;48.538;12.146;2023-08-31T23:49:47;17.70;99.90
4090;DHT22;2059;48.538;12.146;2023-08-31T23:54:50;17.60;99.90
4090;DHT22;2059;48.538;12.146;2023-08-31T23:59:51;17.60;99.90
